sensor_id;sensor_type;location;lat;lon;timestamp;temperature;humidity
27567;DHT22;15006;48.584;9.186;2023-03-02T00:04:59;-0.90;73.70
27567;DHT22;15006;48.584;9.186;2023-03-02T00:07:32;-0.90;73.90
27567;DHT22;15006;48.584;9.186;2023-03-02T00:10:02;-1.00;74.10
27567;DHT22;15006;48.584;9.186;2023-03-02T00:12:32;-1.00;74.10
27567;DHT22;15006;48.584;9.186;2023-03-02T00:15:00;-1.00;74.20
27567;DHT22;15006;48.584;9.186;2023-03-02T00:17:31;-1.10;74.40
27567;DHT22;15006;48.584;9.186;2023-03-02T00:20:02;-1.10;74.50
27567;DHT22;15006;48.584;9.186;2023-03-02T00:22:38;-1.10;74.70
27567;DHT22;15006;48.584;9.186;2023-03-02T00:25:08;-1.20;74.70
27567;DHT22;15006;48.584;9.186;2023-03-02T00:27:37;-1.20;74.90
27567;DHT22;15006;48.584;9.186;2023-03-02T00:30:08;-1.20;75.00
27567;DHT22;15006;48.584;9.186;2023-03-02T00:32:46;-1.20;75.10
27567;DHT22;15006;48.584;9.186;2023-03-02T00:35:15;-1.20;75.30
27567;DHT22;15006;48.584;9.186;2023-03-02T00:37:43;-1.30;75.20
27567;DHT22;15006;48.584;9.186;2023-03-02T00:40:12;-1.30;75.30
27567;DHT22;15006;48.584;9.186;2023-03-02T00:42:40;-1.30;75.40
27567;DHT22;15006;48.584;9.186;2023-03-02T00:45:09;-1.30;75.60
27567;DHT22;15006;48.584;9.186;2023-03-02T00:47:40;-1.30;75.70
27567;DHT22;15006;48.584;9.186;2023-03-02T00:50:09;-1.30;75.80
27567;DHT22;15006;48.584;9.186;2023-03-02T00:52:39;-1.40;75.80
27567;DHT22;15006;48.584;9.186;2023-03-02T00:55:06;-1.30;76.00
27567;DHT22;15006;48.584;9.186;2023-03-02T00:57:34;-1.40;76.10
27567;DHT22;15006;48.584;9.186;2023-03-02T01:00:00;-1.40;76.20
27567;DHT22;15006;48.584;9.186;2023-03-02T01:02:26;-1.40;76.30
27567;DHT22;15006;48.584;9.186;2023-03-02T01:04:53;-1.40;76.40
27567;DHT22;15006;48.584;9.186;2023-03-02T01:07:19;-1.40;76.50
27567;DHT22;15006;48.584;9.186;2023-03-02T01:09:46;-1.40;76.60
27567;DHT22;15006;48.584;9.186;2023-03-02T01:12:13;-1.40;76.70
27567;DHT22;15006;48.584;9.186;2023-03-02T01:14:45;-1.40;76.70
27567;DHT22;15006;48.584;9.186;2023-03-02T01:17:13;-1.40;76.80
27567;DHT22;15006;48.584;9.186;2023-03-02T01:19:40;-1.40;76.70
27567;DHT22;15006;48.584;9.186;2023-03-02T01:22:07;-1.40;76.70
27567;DHT22;15006;48.584;9.186;2023-03-02T01:24:34;-1.40;76.80
27567;DHT22;15006;48.584;9.186;2023-03-02T01:27:00;-1.40;76.90
27567;DHT22;15006;48.584;9.186;2023-03-02T01:29:26;-1.40;76.90
27567;DHT22;15006;48.584;9.186;2023-03-02T01:31:51;-1.50;76.90
27567;DHT22;15006;48.584;9.186;2023-03-02T01:34:17;-1.50;76.90
27567;DHT22;15006;48.584;9.186;2023-03-02T01:36:43;-1.50;76.90
27567;DHT22;15006;48.584;9.186;2023-03-02T01:39:11;-1.50;76.70
27567;DHT22;15006;48.584;9.186;2023-03-02T01:41:44;-1.50;76.60
27567;DHT22;15006;48.584;9.186;2023-03-02T01:47:26;-1.60;77.00
27567;DHT22;15006;48.584;9.186;2023-03-02T01:50:21;-1.60;76.90
27567;DHT22;15006;48.584;9.186;2023-03-02T01:52:49;-1.60;77.20
27567;DHT22;15006;48.584;9.186;2023-03-02T01:55:19;-1.70;77.10
27567;DHT22;15006;48.584;9.186;2023-03-02T01:57:51;-1.70;77.40
27567;DHT22;15006;48.584;9.186;2023-03-02T02:00:25;-1.70;77.70
27567;DHT22;15006;48.584;9.186;2023-03-02T02:02:57;-1.70;78.20
27567;DHT22;15006;48.584;9.186;2023-03-02T02:05:35;-1.70;78.50
27567;DHT22;15006;48.584;9.186;2023-03-02T02:08:06;-1.60;78.30
27567;DHT22;15006;48.584;9.186;2023-03-02T02:10:34;-1.60;78.50
27567;DHT22;15006;48.584;9.186;2023-03-02T02:13:01;-1.60;78.60
27567;DHT22;15006;48.584;9.186;2023-03-02T02:15:27;-1.60;78.60
27567;DHT22;15006;48.584;9.186;2023-03-02T02:17:54;-1.50;78.80
27567;DHT22;15006;48.584;9.186;2023-03-02T02:28:41;-1.40;78.60
27567;DHT22;15006;48.584;9.186;2023-03-02T02:31:34;-1.40;78.50
27567;DHT22;15006;48.584;9.186;2023-03-02T02:34:13;-1.40;79.20
27567;DHT22;15006;48.584;9.186;2023-03-02T02:36:49;-1.30;78.30
27567;DHT22;15006;48.584;9.186;2023-03-02T02:39:22;-1.40;78.20
27567;DHT22;15006;48.584;9.186;2023-03-02T02:41:55;-1.40;78.20
27567;DHT22;15006;48.584;9.186;2023-03-02T02:44:23;-1.40;78.20
27567;DHT22;15006;48.584;9.186;2023-03-02T02:46:49;-1.40;78.20
27567;DHT22;15006;48.584;9.186;2023-03-02T02:49:37;-1.50;78.30
27567;DHT22;15006;48.584;9.186;2023-03-02T02:52:05;-1.50;78.30
27567;DHT22;15006;48.584;9.186;2023-03-02T02:54:33;-1.50;78.30
27567;DHT22;15006;48.584;9.186;2023-03-02T02:57:02;-1.50;78.50
27567;DHT22;15006;48.584;9.186;2023-03-02T02:59:32;-1.50;78.60
27567;DHT22;15006;48.584;9.186;2023-03-02T03:02:01;-1.60;78.50
27567;DHT22;15006;48.584;9.186;2023-03-02T03:04:30;-1.60;78.30
27567;DHT22;15006;48.584;9.186;2023-03-02T03:07:02;-1.60;78.20
27567;DHT22;15006;48.584;9.186;2023-03-02T03:09:32;-1.60;78.10
27567;DHT22;15006;48.584;9.186;2023-03-02T03:12:14;-1.70;78.00
27567;DHT22;15006;48.584;9.186;2023-03-02T03:14:42;-1.70;78.10
27567;DHT22;15006;48.584;9.186;2023-03-02T03:17:09;-1.80;78.00
27567;DHT22;15006;48.584;9.186;2023-03-02T03:19:40;-1.80;78.00
27567;DHT22;15006;48.584;9.186;2023-03-02T03:22:09;-1.90;78.10
27567;DHT22;15006;48.584;9.186;2023-03-02T03:24:39;-1.90;78.30
27567;DHT22;15006;48.584;9.186;2023-03-02T03:27:08;-2.00;78.30
27567;DHT22;15006;48.584;9.186;2023-03-02T03:29:37;-2.10;78.40
27567;DHT22;15006;48.584;9.186;2023-03-02T03:32:04;-2.10;78.60
27567;DHT22;15006;48.584;9.186;2023-03-02T03:34:32;-2.20;78.80
27567;DHT22;15006;48.584;9.186;2023-03-02T03:36:58;-2.30;78.90
27567;DHT22;15006;48.584;9.186;2023-03-02T03:39:30;-2.30;79.00
27567;DHT22;15006;48.584;9.186;2023-03-02T03:41:56;-2.30;79.20
27567;DHT22;15006;48.584;9.186;2023-03-02T03:44:22;-2.40;79.30
27567;DHT22;15006;48.584;9.186;2023-03-02T03:46:49;-2.40;79.60
27567;DHT22;15006;48.584;9.186;2023-03-02T03:49:15;-2.40;80.00
27567;DHT22;15006;48.584;9.186;2023-03-02T03:51:41;-2.50;81.00
27567;DHT22;15006;48.584;9.186;2023-03-02T03:54:08;-2.50;80.60
27567;DHT22;15006;48.584;9.186;2023-03-02T03:56:38;-2.50;80.90
27567;DHT22;15006;48.584;9.186;2023-03-02T03:59:11;-2.40;81.30
27567;DHT22;15006;48.584;9.186;2023-03-02T04:01:43;-2.40;81.50
27567;DHT22;15006;48.584;9.186;2023-03-02T04:04:14;-2.40;81.60
27567;DHT22;15006;48.584;9.186;2023-03-02T04:06:42;-2.40;81.70
27567;DHT22;15006;48.584;9.186;2023-03-02T04:09:08;-2.40;81.80
27567;DHT22;15006;48.584;9.186;2023-03-02T04:11:39;-2.30;82.00
27567;DHT22;15006;48.584;9.186;2023-03-02T04:14:07;-2.30;82.10
27567;DHT22;15006;48.584;9.186;2023-03-02T04:16:34;-2.30;82.10
27567;DHT22;15006;48.584;9.186;2023-03-02T04:19:01;-2.20;82.20
27567;DHT22;15006;48.584;9.186;2023-03-02T04:21:28;-2.10;82.20
27567;DHT22;15006;48.584;9.186;2023-03-02T04:23:54;-2.10;82.20
27567;DHT22;15006;48.584;9.186;2023-03-02T04:26:20;-2.10;82.10
27567;DHT22;15006;48.584;9.186;2023-03-02T04:28:46;-2.00;82.10
27567;DHT22;15006;48.584;9.186;2023-03-02T04:31:15;-2.00;82.00
27567;DHT22;15006;48.584;9.186;2023-03-02T04:33:42;-2.00;82.00
27567;DHT22;15006;48.584;9.186;2023-03-02T04:36:08;-1.90;82.00
27567;DHT22;15006;48.584;9.186;2023-03-02T04:38:34;-1.90;81.90
27567;DHT22;15006;48.584;9.186;2023-03-02T04:41:00;-1.90;81.80
27567;DHT22;15006;48.584;9.186;2023-03-02T04:43:27;-1.80;82.50
27567;DHT22;15006;48.584;9.186;2023-03-02T04:45:53;-1.90;81.70
27567;DHT22;15006;48.584;9.186;2023-03-02T04:48:21;-1.80;81.80
27567;DHT22;15006;48.584;9.186;2023-03-02T04:50:47;-1.80;81.80
27567;DHT22;15006;48.584;9.186;2023-03-02T04:53:13;-1.80;81.80
27567;DHT22;15006;48.584;9.186;2023-03-02T04:55:40;-1.80;81.90
27567;DHT22;15006;48.584;9.186;2023-03-02T04:58:06;-1.70;82.00
27567;DHT22;15006;48.584;9.186;2023-03-02T05:00:33;-1.70;82.00
27567;DHT22;15006;48.584;9.186;2023-03-02T05:03:03;-1.70;81.90
27567;DHT22;15006;48.584;9.186;2023-03-02T05:05:30;-1.60;82.00
27567;DHT22;15006;48.584;9.186;2023-03-02T05:07:57;-1.60;81.90
27567;DHT22;15006;48.584;9.186;2023-03-02T05:10:24;-1.60;81.80
27567;DHT22;15006;48.584;9.186;2023-03-02T05:12:50;-1.60;81.80
27567;DHT22;15006;48.584;9.186;2023-03-02T05:15:25;-1.60;81.80
27567;DHT22;15006;48.584;9.186;2023-03-02T05:17:53;-1.60;81.70
27567;DHT22;15006;48.584;9.186;2023-03-02T05:20:20;-1.50;82.50
27567;DHT22;15006;48.584;9.186;2023-03-02T05:22:46;-1.50;81.80
27567;DHT22;15006;48.584;9.186;2023-03-02T05:25:12;-1.50;81.70
27567;DHT22;15006;48.584;9.186;2023-03-02T05:27:39;-1.50;81.70
27567;DHT22;15006;48.584;9.186;2023-03-02T05:30:05;-1.50;81.60
27567;DHT22;15006;48.584;9.186;2023-03-02T05:32:32;-1.50;81.60
27567;DHT22;15006;48.584;9.186;2023-03-02T05:34:58;-1.50;81.70
27567;DHT22;15006;48.584;9.186;2023-03-02T05:37:24;-1.40;81.70
27567;DHT22;15006;48.584;9.186;2023-03-02T05:39:49;-1.40;81.60
27567;DHT22;15006;48.584;9.186;2023-03-02T05:42:15;-1.50;81.60
27567;DHT22;15006;48.584;9.186;2023-03-02T05:44:41;-1.40;81.70
27567;DHT22;15006;48.584;9.186;2023-03-02T05:47:07;-1.40;81.80
27567;DHT22;15006;48.584;9.186;2023-03-02T05:49:33;-1.40;81.80
27567;DHT22;15006;48.584;9.186;2023-03-02T05:52:00;-1.40;81.80
27567;DHT22;15006;48.584;9.186;2023-03-02T05:54:26;-1.40;81.90
27567;DHT22;15006;48.584;9.186;2023-03-02T05:56:52;-1.40;81.90
27567;DHT22;15006;48.584;9.186;2023-03-02T05:59:18;-1.30;81.90
27567;DHT22;15006;48.584;9.186;2023-03-02T06:01:46;-1.30;81.80
27567;DHT22;15006;48.584;9.186;2023-03-02T06:04:14;-1.30;81.80
27567;DHT22;15006;48.584;9.186;2023-03-02T06:06:40;-1.20;81.80
27567;DHT22;15006;48.584;9.186;2023-03-02T06:09:06;-1.20;81.70
27567;DHT22;15006;48.584;9.186;2023-03-02T06:11:32;-1.20;81.60
27567;DHT22;15006;48.584;9.186;2023-03-02T06:13:58;-1.20;81.60
27567;DHT22;15006;48.584;9.186;2023-03-02T06:16:24;-1.20;81.50
27567;DHT22;15006;48.584;9.186;2023-03-02T06:18:53;-1.20;81.50
27567;DHT22;15006;48.584;9.186;2023-03-02T06:21:19;-1.10;81.50
27567;DHT22;15006;48.584;9.186;2023-03-02T06:23:45;-1.10;81.50
27567;DHT22;15006;48.584;9.186;2023-03-02T06:26:11;-1.10;81.40
27567;DHT22;15006;48.584;9.186;2023-03-02T06:28:38;-1.10;81.40
27567;DHT22;15006;48.584;9.186;2023-03-02T06:31:04;-1.10;81.30
27567;DHT22;15006;48.584;9.186;2023-03-02T06:33:30;-1.00;81.50
27567;DHT22;15006;48.584;9.186;2023-03-02T06:35:56;-1.00;81.40
27567;DHT22;15006;48.584;9.186;2023-03-02T06:38:22;-1.00;81.40
27567;DHT22;15006;48.584;9.186;2023-03-02T06:40:48;-1.00;81.40
27567;DHT22;15006;48.584;9.186;2023-03-02T06:43:15;-1.00;81.30
27567;DHT22;15006;48.584;9.186;2023-03-02T06:45:41;-1.00;81.40
27567;DHT22;15006;48.584;9.186;2023-03-02T06:48:07;-1.00;81.40
27567;DHT22;15006;48.584;9.186;2023-03-02T06:50:33;-0.90;81.40
27567;DHT22;15006;48.584;9.186;2023-03-02T06:53:02;-0.90;81.30
27567;DHT22;15006;48.584;9.186;2023-03-02T06:55:29;-0.90;81.30
27567;DHT22;15006;48.584;9.186;2023-03-02T06:57:55;-0.80;81.40
27567;DHT22;15006;48.584;9.186;2023-03-02T07:00:21;-0.80;81.30
27567;DHT22;15006;48.584;9.186;2023-03-02T07:02:53;-0.80;81.30
27567;DHT22;15006;48.584;9.186;2023-03-02T07:05:21;-0.80;80.50
27567;DHT22;15006;48.584;9.186;2023-03-02T07:07:49;-0.70;81.30
27567;DHT22;15006;48.584;9.186;2023-03-02T07:10:15;-0.70;81.40
27567;DHT22;15006;48.584;9.186;2023-03-02T07:12:42;-0.60;81.50
27567;DHT22;15006;48.584;9.186;2023-03-02T07:15:08;-0.60;81.50
27567;DHT22;15006;48.584;9.186;2023-03-02T07:17:41;-0.60;81.50
27567;DHT22;15006;48.584;9.186;2023-03-02T07:20:10;-0.50;81.40
27567;DHT22;15006;48.584;9.186;2023-03-02T07:22:37;-0.50;81.50
27567;DHT22;15006;48.584;9.186;2023-03-02T07:25:04;-0.50;81.40
27567;DHT22;15006;48.584;9.186;2023-03-02T07:27:30;-0.40;81.30
27567;DHT22;15006;48.584;9.186;2023-03-02T07:29:59;-0.40;81.20
27567;DHT22;15006;48.584;9.186;2023-03-02T07:32:26;-0.30;81.30
27567;DHT22;15006;48.584;9.186;2023-03-02T07:34:53;-0.30;81.30
27567;DHT22;15006;48.584;9.186;2023-03-02T07:37:18;-0.20;81.50
27567;DHT22;15006;48.584;9.186;2023-03-02T07:39:46;-0.20;81.40
27567;DHT22;15006;48.584;9.186;2023-03-02T07:42:14;-0.10;81.30
27567;DHT22;15006;48.584;9.186;2023-03-02T07:44:41;0.00;81.40
27567;DHT22;15006;48.584;9.186;2023-03-02T07:47:07;0.00;81.30
27567;DHT22;15006;48.584;9.186;2023-03-02T07:49:33;0.10;81.30
27567;DHT22;15006;48.584;9.186;2023-03-02T07:52:03;0.10;81.10
27567;DHT22;15006;48.584;9.186;2023-03-02T07:54:29;0.20;80.90
27567;DHT22;15006;48.584;9.186;2023-03-02T07:56:56;0.30;80.90
27567;DHT22;15006;48.584;9.186;2023-03-02T07:59:23;0.30;80.80
27567;DHT22;15006;48.584;9.186;2023-03-02T08:01:49;0.30;80.80
27567;DHT22;15006;48.584;9.186;2023-03-02T08:04:15;0.40;80.80
27567;DHT22;15006;48.584;9.186;2023-03-02T08:06:41;0.50;80.70
27567;DHT22;15006;48.584;9.186;2023-03-02T08:09:07;0.50;80.60
27567;DHT22;15006;48.584;9.186;2023-03-02T08:11:33;0.60;80.40
27567;DHT22;15006;48.584;9.186;2023-03-02T08:14:00;0.70;80.30
27567;DHT22;15006;48.584;9.186;2023-03-02T08:16:27;0.70;80.10
27567;DHT22;15006;48.584;9.186;2023-03-02T08:18:54;0.70;80.00
27567;DHT22;15006;48.584;9.186;2023-03-02T08:21:22;0.80;79.80
27567;DHT22;15006;48.584;9.186;2023-03-02T08:23:50;0.80;79.70
27567;DHT22;15006;48.584;9.186;2023-03-02T08:26:18;0.80;79.70
27567;DHT22;15006;48.584;9.186;2023-03-02T08:28:45;0.90;79.50
27567;DHT22;15006;48.584;9.186;2023-03-02T08:31:12;0.90;79.30
27567;DHT22;15006;48.584;9.186;2023-03-02T08:33:38;1.00;80.10
27567;DHT22;15006;48.584;9.186;2023-03-02T08:36:07;1.00;79.20
27567;DHT22;15006;48.584;9.186;2023-03-02T08:38:36;1.00;79.00
27567;DHT22;15006;48.584;9.186;2023-03-02T08:41:07;1.10;79.30
27567;DHT22;15006;48.584;9.186;2023-03-02T08:43:36;1.10;79.40
27567;DHT22;15006;48.584;9.186;2023-03-02T08:46:02;1.10;79.40
27567;DHT22;15006;48.584;9.186;2023-03-02T08:48:29;1.20;79.30
27567;DHT22;15006;48.584;9.186;2023-03-02T08:51:02;1.30;79.40
27567;DHT22;15006;48.584;9.186;2023-03-02T08:53:36;1.40;79.00
27567;DHT22;15006;48.584;9.186;2023-03-02T08:56:13;1.40;78.80
27567;DHT22;15006;48.584;9.186;2023-03-02T08:58:43;1.50;78.80
27567;DHT22;15006;48.584;9.186;2023-03-02T09:01:17;1.60;78.20
27567;DHT22;15006;48.584;9.186;2023-03-02T09:03:47;1.70;77.70
27567;DHT22;15006;48.584;9.186;2023-03-02T09:06:14;1.80;78.30
27567;DHT22;15006;48.584;9.186;2023-03-02T09:08:41;1.90;78.10
27567;DHT22;15006;48.584;9.186;2023-03-02T09:11:08;1.90;77.80
27567;DHT22;15006;48.584;9.186;2023-03-02T09:13:34;1.90;77.60
27567;DHT22;15006;48.584;9.186;2023-03-02T09:16:00;2.00;77.60
27567;DHT22;15006;48.584;9.186;2023-03-02T09:18:28;2.10;77.40
27567;DHT22;15006;48.584;9.186;2023-03-02T09:20:55;2.10;77.20
27567;DHT22;15006;48.584;9.186;2023-03-02T09:23:24;2.20;77.20
27567;DHT22;15006;48.584;9.186;2023-03-02T09:25:51;2.20;77.00
27567;DHT22;15006;48.584;9.186;2023-03-02T09:28:18;2.30;77.10
27567;DHT22;15006;48.584;9.186;2023-03-02T09:30:51;2.30;76.90
27567;DHT22;15006;48.584;9.186;2023-03-02T09:33:18;2.40;76.30
27567;DHT22;15006;48.584;9.186;2023-03-02T09:35:45;2.50;76.90
27567;DHT22;15006;48.584;9.186;2023-03-02T09:38:13;2.60;77.00
27567;DHT22;15006;48.584;9.186;2023-03-02T09:40:54;2.70;76.70
27567;DHT22;15006;48.584;9.186;2023-03-02T09:46:25;2.80;76.60
27567;DHT22;15006;48.584;9.186;2023-03-02T09:49:28;3.00;74.80
27567;DHT22;15006;48.584;9.186;2023-03-02T09:55:17;3.20;75.60
27567;DHT22;15006;48.584;9.186;2023-03-02T09:57:44;3.30;75.70
27567;DHT22;15006;48.584;9.186;2023-03-02T10:02:49;3.50;75.70
27567;DHT22;15006;48.584;9.186;2023-03-02T10:05:25;3.60;75.20
27567;DHT22;15006;48.584;9.186;2023-03-02T10:07:53;3.70;75.40
27567;DHT22;15006;48.584;9.186;2023-03-02T10:13:10;4.00;74.70
27567;DHT22;15006;48.584;9.186;2023-03-02T10:18:46;4.30;73.30
27567;DHT22;15006;48.584;9.186;2023-03-02T10:21:41;4.40;73.80
27567;DHT22;15006;48.584;9.186;2023-03-02T10:27:15;4.80;71.80
27567;DHT22;15006;48.584;9.186;2023-03-02T10:32:18;5.00;72.80
27567;DHT22;15006;48.584;9.186;2023-03-02T10:34:44;5.10;72.10
27567;DHT22;15006;48.584;9.186;2023-03-02T10:37:17;5.10;71.40
27567;DHT22;15006;48.584;9.186;2023-03-02T10:39:50;5.20;69.80
27567;DHT22;15006;48.584;9.186;2023-03-02T10:42:27;5.20;69.90
27567;DHT22;15006;48.584;9.186;2023-03-02T10:45:06;5.20;69.40
27567;DHT22;15006;48.584;9.186;2023-03-02T10:47:35;5.10;69.30
27567;DHT22;15006;48.584;9.186;2023-03-02T10:50:01;5.10;70.70
27567;DHT22;15006;48.584;9.186;2023-03-02T10:52:28;5.20;70.70
27567;DHT22;15006;48.584;9.186;2023-03-02T10:55:14;5.20;70.50
27567;DHT22;15006;48.584;9.186;2023-03-02T10:57:44;5.20;67.90
27567;DHT22;15006;48.584;9.186;2023-03-02T11:00:28;5.20;69.30
27567;DHT22;15006;48.584;9.186;2023-03-02T11:03:05;5.30;68.10
27567;DHT22;15006;48.584;9.186;2023-03-02T11:05:42;5.30;69.20
27567;DHT22;15006;48.584;9.186;2023-03-02T11:08:16;5.40;70.30
27567;DHT22;15006;48.584;9.186;2023-03-02T11:10:56;5.40;69.50
27567;DHT22;15006;48.584;9.186;2023-03-02T11:13:26;5.50;69.00
27567;DHT22;15006;48.584;9.186;2023-03-02T11:18:59;5.70;67.70
27567;DHT22;15006;48.584;9.186;2023-03-02T11:26:51;6.30;69.70
27567;DHT22;15006;48.584;9.186;2023-03-02T11:29:39;6.50;67.60
27567;DHT22;15006;48.584;9.186;2023-03-02T11:35:32;6.70;64.40
27567;DHT22;15006;48.584;9.186;2023-03-02T11:38:25;6.80;66.70
27567;DHT22;15006;48.584;9.186;2023-03-02T11:40:59;7.00;64.80
27567;DHT22;15006;48.584;9.186;2023-03-02T11:43:28;7.10;66.80
27567;DHT22;15006;48.584;9.186;2023-03-02T11:46:04;7.20;67.10
27567;DHT22;15006;48.584;9.186;2023-03-02T11:48:32;7.20;66.90
27567;DHT22;15006;48.584;9.186;2023-03-02T11:51:12;7.30;66.70
27567;DHT22;15006;48.584;9.186;2023-03-02T11:53:41;7.50;63.90
27567;DHT22;15006;48.584;9.186;2023-03-02T11:56:10;7.50;61.90
27567;DHT22;15006;48.584;9.186;2023-03-02T11:58:37;7.60;65.50
27567;DHT22;15006;48.584;9.186;2023-03-02T12:01:05;7.70;64.40
27567;DHT22;15006;48.584;9.186;2023-03-02T12:06:05;7.90;66.80
27567;DHT22;15006;48.584;9.186;2023-03-02T12:08:40;8.10;66.50
27567;DHT22;15006;48.584;9.186;2023-03-02T12:11:32;8.60;66.90
27567;DHT22;15006;48.584;9.186;2023-03-02T12:17:19;9.70;67.40
27567;DHT22;15006;48.584;9.186;2023-03-02T12:20:07;10.30;67.50
27567;DHT22;15006;48.584;9.186;2023-03-02T12:22:34;10.90;60.00
27567;DHT22;15006;48.584;9.186;2023-03-02T12:27:46;11.40;58.70
27567;DHT22;15006;48.584;9.186;2023-03-02T12:35:35;11.50;53.60
27567;DHT22;15006;48.584;9.186;2023-03-02T12:38:04;11.20;54.70
27567;DHT22;15006;48.584;9.186;2023-03-02T12:44:13;10.30;53.80
27567;DHT22;15006;48.584;9.186;2023-03-02T12:46:48;9.70;54.30
27567;DHT22;15006;48.584;9.186;2023-03-02T12:52:34;8.80;55.30
27567;DHT22;15006;48.584;9.186;2023-03-02T12:55:20;8.50;55.50
27567;DHT22;15006;48.584;9.186;2023-03-02T12:57:52;8.30;56.00
27567;DHT22;15006;48.584;9.186;2023-03-02T13:00:25;8.10;57.50
27567;DHT22;15006;48.584;9.186;2023-03-02T13:02:56;8.00;57.50
27567;DHT22;15006;48.584;9.186;2023-03-02T13:05:29;8.00;59.20
27567;DHT22;15006;48.584;9.186;2023-03-02T13:08:07;8.00;59.40
27567;DHT22;15006;48.584;9.186;2023-03-02T13:10:39;8.00;60.30
27567;DHT22;15006;48.584;9.186;2023-03-02T13:13:26;8.20;61.30
27567;DHT22;15006;48.584;9.186;2023-03-02T13:16:04;8.30;58.90
27567;DHT22;15006;48.584;9.186;2023-03-02T13:18:35;8.40;59.80
27567;DHT22;15006;48.584;9.186;2023-03-02T13:21:04;8.50;59.80
27567;DHT22;15006;48.584;9.186;2023-03-02T13:23:32;8.60;61.20
27567;DHT22;15006;48.584;9.186;2023-03-02T13:26:04;8.80;62.60
27567;DHT22;15006;48.584;9.186;2023-03-02T13:28:33;9.10;59.70
27567;DHT22;15006;48.584;9.186;2023-03-02T13:31:17;9.40;62.00
27567;DHT22;15006;48.584;9.186;2023-03-02T13:33:46;9.70;61.70
27567;DHT22;15006;48.584;9.186;2023-03-02T13:36:28;10.10;60.70
27567;DHT22;15006;48.584;9.186;2023-03-02T13:38:59;10.50;59.10
27567;DHT22;15006;48.584;9.186;2023-03-02T13:41:31;10.80;58.60
27567;DHT22;15006;48.584;9.186;2023-03-02T13:43:58;11.10;57.80
27567;DHT22;15006;48.584;9.186;2023-03-02T13:46:44;11.40;57.10
27567;DHT22;15006;48.584;9.186;2023-03-02T13:49:10;11.60;57.10
27567;DHT22;15006;48.584;9.186;2023-03-02T13:51:46;11.80;56.00
27567;DHT22;15006;48.584;9.186;2023-03-02T13:54:19;11.90;53.60
27567;DHT22;15006;48.584;9.186;2023-03-02T13:56:48;12.10;54.20
27567;DHT22;15006;48.584;9.186;2023-03-02T13:59:17;12.20;55.40
27567;DHT22;15006;48.584;9.186;2023-03-02T14:01:45;12.40;55.20
27567;DHT22;15006;48.584;9.186;2023-03-02T14:04:13;12.60;54.60
27567;DHT22;15006;48.584;9.186;2023-03-02T14:06:41;12.70;53.80
27567;DHT22;15006;48.584;9.186;2023-03-02T14:09:07;12.90;53.30
27567;DHT22;15006;48.584;9.186;2023-03-02T14:11:36;12.90;51.50
27567;DHT22;15006;48.584;9.186;2023-03-02T14:14:04;13.00;51.50
27567;DHT22;15006;48.584;9.186;2023-03-02T14:16:31;13.00;50.90
27567;DHT22;15006;48.584;9.186;2023-03-02T14:19:00;13.00;50.10
27567;DHT22;15006;48.584;9.186;2023-03-02T14:21:28;12.90;49.30
27567;DHT22;15006;48.584;9.186;2023-03-02T14:23:54;12.70;48.70
27567;DHT22;15006;48.584;9.186;2023-03-02T14:26:31;12.50;49.70
27567;DHT22;15006;48.584;9.186;2023-03-02T14:29:11;12.40;48.20
27567;DHT22;15006;48.584;9.186;2023-03-02T14:31:46;12.20;48.50
27567;DHT22;15006;48.584;9.186;2023-03-02T14:34:13;11.90;48.80
27567;DHT22;15006;48.584;9.186;2023-03-02T14:36:41;11.80;48.80
27567;DHT22;15006;48.584;9.186;2023-03-02T14:39:19;11.60;50.00
27567;DHT22;15006;48.584;9.186;2023-03-02T14:41:48;11.40;49.80
27567;DHT22;15006;48.584;9.186;2023-03-02T14:44:15;11.20;50.10
27567;DHT22;15006;48.584;9.186;2023-03-02T14:46:41;11.10;50.60
27567;DHT22;15006;48.584;9.186;2023-03-02T14:49:07;10.90;51.60
27567;DHT22;15006;48.584;9.186;2023-03-02T14:51:35;10.80;51.70
27567;DHT22;15006;48.584;9.186;2023-03-02T14:54:06;10.70;51.30
27567;DHT22;15006;48.584;9.186;2023-03-02T14:56:33;10.70;51.30
27567;DHT22;15006;48.584;9.186;2023-03-02T14:58:59;10.60;52.20
27567;DHT22;15006;48.584;9.186;2023-03-02T15:01:25;10.60;51.60
27567;DHT22;15006;48.584;9.186;2023-03-02T15:03:51;10.50;51.50
27567;DHT22;15006;48.584;9.186;2023-03-02T15:06:25;10.40;52.30
27567;DHT22;15006;48.584;9.186;2023-03-02T15:08:56;10.40;51.70
27567;DHT22;15006;48.584;9.186;2023-03-02T15:11:24;10.30;52.00
27567;DHT22;15006;48.584;9.186;2023-03-02T15:13:52;10.30;53.00
27567;DHT22;15006;48.584;9.186;2023-03-02T15:16:18;10.30;52.70
27567;DHT22;15006;48.584;9.186;2023-03-02T15:18:44;10.20;52.80
27567;DHT22;15006;48.584;9.186;2023-03-02T15:21:22;10.20;53.00
27567;DHT22;15006;48.584;9.186;2023-03-02T15:23:49;10.10;51.80
27567;DHT22;15006;48.584;9.186;2023-03-02T15:26:16;10.00;51.90
27567;DHT22;15006;48.584;9.186;2023-03-02T15:28:42;9.90;52.40
27567;DHT22;15006;48.584;9.186;2023-03-02T15:31:14;9.80;52.20
27567;DHT22;15006;48.584;9.186;2023-03-02T15:33:41;9.50;52.00
27567;DHT22;15006;48.584;9.186;2023-03-02T15:36:12;9.30;52.80
27567;DHT22;15006;48.584;9.186;2023-03-02T15:38:41;9.20;53.40
27567;DHT22;15006;48.584;9.186;2023-03-02T15:41:10;9.20;53.80
27567;DHT22;15006;48.584;9.186;2023-03-02T15:43:38;9.00;52.50
27567;DHT22;15006;48.584;9.186;2023-03-02T15:46:04;9.00;54.40
27567;DHT22;15006;48.584;9.186;2023-03-02T15:48:34;8.90;54.20
27567;DHT22;15006;48.584;9.186;2023-03-02T15:51:05;8.80;54.60
27567;DHT22;15006;48.584;9.186;2023-03-02T15:53:33;8.70;54.40
27567;DHT22;15006;48.584;9.186;2023-03-02T15:56:03;8.70;54.10
27567;DHT22;15006;48.584;9.186;2023-03-02T15:58:31;8.60;55.20
27567;DHT22;15006;48.584;9.186;2023-03-02T16:00:59;8.50;54.90
27567;DHT22;15006;48.584;9.186;2023-03-02T16:03:26;8.20;54.20
27567;DHT22;15006;48.584;9.186;2023-03-02T16:05:57;8.00;54.60
27567;DHT22;15006;48.584;9.186;2023-03-02T16:08:23;7.80;55.30
27567;DHT22;15006;48.584;9.186;2023-03-02T16:11:00;7.60;55.50
27567;DHT22;15006;48.584;9.186;2023-03-02T16:13:29;7.30;55.50
27567;DHT22;15006;48.584;9.186;2023-03-02T16:15:55;7.00;56.10
27567;DHT22;15006;48.584;9.186;2023-03-02T16:18:22;6.70;56.30
27567;DHT22;15006;48.584;9.186;2023-03-02T16:20:48;6.50;56.80
27567;DHT22;15006;48.584;9.186;2023-03-02T16:23:14;6.30;57.30
27567;DHT22;15006;48.584;9.186;2023-03-02T16:25:48;6.00;57.70
27567;DHT22;15006;48.584;9.186;2023-03-02T16:28:16;5.80;58.30
27567;DHT22;15006;48.584;9.186;2023-03-02T16:30:44;5.50;58.80
27567;DHT22;15006;48.584;9.186;2023-03-02T16:33:16;5.30;59.40
27567;DHT22;15006;48.584;9.186;2023-03-02T16:35:43;5.10;59.90
27567;DHT22;15006;48.584;9.186;2023-03-02T16:38:10;4.90;60.20
27567;DHT22;15006;48.584;9.186;2023-03-02T16:40:37;4.70;60.60
27567;DHT22;15006;48.584;9.186;2023-03-02T16:43:06;4.50;61.30
27567;DHT22;15006;48.584;9.186;2023-03-02T16:45:33;4.30;62.00
27567;DHT22;15006;48.584;9.186;2023-03-02T16:48:00;4.00;62.70
27567;DHT22;15006;48.584;9.186;2023-03-02T16:50:26;3.80;63.20
27567;DHT22;15006;48.584;9.186;2023-03-02T16:52:52;3.70;63.60
27567;DHT22;15006;48.584;9.186;2023-03-02T16:55:18;3.50;64.20
27567;DHT22;15006;48.584;9.186;2023-03-02T16:57:45;3.40;64.70
27567;DHT22;15006;48.584;9.186;2023-03-02T17:00:14;3.30;65.40